sensor_id;sensor_type;location;lat;lon;timestamp;temperature;humidity
26517;DHT22;14190;51.342;6.338;2022-10-16T00:01:23;16.00;99.90
26517;DHT22;14190;51.342;6.338;2022-10-16T00:03:52;16.00;99.90
26517;DHT22;14190;51.342;6.338;2022-10-16T00:06:22;15.90;99.90
26517;DHT22;14190;51.342;6.338;2022-10-16T00:08:53;15.90;99.90
26517;DHT22;14190;51.342;6.338;2022-10-16T00:11:23;15.90;99.90
26517;DHT22;14190;51.342;6.338;2022-10-16T00:13:54;15.90;99.90
26517;DHT22;14190;51.342;6.338;2022-10-16T00:16:22;15.90;99.90
26517;DHT22;14190;51.342;6.338;2022-10-16T00:18:51;15.90;99.90
26517;DHT22;14190;51.342;6.338;2022-10-16T00:21:21;15.90;99.90
26517;DHT22;14190;51.342;6.338;2022-10-16T00:23:56;15.90;99.90
26517;DHT22;14190;51.342;6.338;2022-10-16T00:26:21;15.90;99.90
26517;DHT22;14190;51.342;6.338;2022-10-16T00:28:50;15.90;99.90
26517;DHT22;14190;51.342;6.338;2022-10-16T00:31:19;15.90;99.90
26517;DHT22;14190;51.342;6.338;2022-10-16T00:33:48;15.90;99.90
26517;DHT22;14190;51.342;6.338;2022-10-16T00:36:18;15.90;99.90
26517;DHT22;14190;51.342;6.338;2022-10-16T00:38:50;15.90;99.90
26517;DHT22;14190;51.342;6.338;2022-10-16T00:41:20;15.90;99.90
26517;DHT22;14190;51.342;6.338;2022-10-16T00:43:50;15.90;99.90
26517;DHT22;14190;51.342;6.338;2022-10-16T00:46:23;15.90;99.90
26517;DHT22;14190;51.342;6.338;2022-10-16T00:49:12;15.80;99.90
26517;DHT22;14190;51.342;6.338;2022-10-16T00:51:51;15.80;99.90
26517;DHT22;14190;51.342;6.338;2022-10-16T00:54:19;15.80;99.90
26517;DHT22;14190;51.342;6.338;2022-10-16T00:56:42;15.80;99.90
26517;DHT22;14190;51.342;6.338;2022-10-16T00:59:16;15.80;99.90
26517;DHT22;14190;51.342;6.338;2022-10-16T01:01:46;15.80;99.90
26517;DHT22;14190;51.342;6.338;2022-10-16T01:04:14;15.80;99.90
26517;DHT22;14190;51.342;6.338;2022-10-16T01:06:51;15.80;99.90
26517;DHT22;14190;51.342;6.338;2022-10-16T01:11:55;15.80;99.90
26517;DHT22;14190;51.342;6.338;2022-10-16T01:14:26;15.80;99.90
26517;DHT22;14190;51.342;6.338;2022-10-16T01:16:55;15.80;99.90
26517;DHT22;14190;51.342;6.338;2022-10-16T01:19:30;15.90;99.90
26517;DHT22;14190;51.342;6.338;2022-10-16T01:21:56;15.80;99.90
26517;DHT22;14190;51.342;6.338;2022-10-16T01:24:39;15.80;99.90
26517;DHT22;14190;51.342;6.338;2022-10-16T01:27:12;15.80;99.90
26517;DHT22;14190;51.342;6.338;2022-10-16T01:32:16;15.70;99.90
26517;DHT22;14190;51.342;6.338;2022-10-16T01:34:49;15.70;99.90
26517;DHT22;14190;51.342;6.338;2022-10-16T01:37:22;15.70;99.90
26517;DHT22;14190;51.342;6.338;2022-10-16T01:39:50;15.60;99.90
26517;DHT22;14190;51.342;6.338;2022-10-16T01:42:24;15.60;99.90
26517;DHT22;14190;51.342;6.338;2022-10-16T01:44:53;15.60;99.90
26517;DHT22;14190;51.342;6.338;2022-10-16T01:47:23;15.60;99.90
26517;DHT22;14190;51.342;6.338;2022-10-16T01:49:53;15.50;99.90
26517;DHT22;14190;51.342;6.338;2022-10-16T01:52:23;15.50;99.90
26517;DHT22;14190;51.342;6.338;2022-10-16T01:54:53;15.50;99.90
26517;DHT22;14190;51.342;6.338;2022-10-16T01:57:22;15.50;99.90
26517;DHT22;14190;51.342;6.338;2022-10-16T01:59:53;15.50;99.90
26517;DHT22;14190;51.342;6.338;2022-10-16T02:02:22;15.50;99.90
26517;DHT22;14190;51.342;6.338;2022-10-16T02:05:02;15.40;99.90
26517;DHT22;14190;51.342;6.338;2022-10-16T02:07:30;15.40;99.90
26517;DHT22;14190;51.342;6.338;2022-10-16T02:10:00;15.40;99.90
26517;DHT22;14190;51.342;6.338;2022-10-16T02:12:33;15.40;99.90
26517;DHT22;14190;51.342;6.338;2022-10-16T02:15:02;15.40;99.90
26517;DHT22;14190;51.342;6.338;2022-10-16T02:17:32;15.40;99.90
26517;DHT22;14190;51.342;6.338;2022-10-16T02:20:00;15.40;99.90
26517;DHT22;14190;51.342;6.338;2022-10-16T02:22:32;15.40;99.90
26517;DHT22;14190;51.342;6.338;2022-10-16T02:25:08;15.40;99.90
26517;DHT22;14190;51.342;6.338;2022-10-16T02:27:48;15.30;99.90
26517;DHT22;14190;51.342;6.338;2022-10-16T02:30:21;15.30;99.90
26517;DHT22;14190;51.342;6.338;2022-10-16T02:32:48;15.30;99.90
26517;DHT22;14190;51.342;6.338;2022-10-16T02:35:18;15.40;99.90
26517;DHT22;14190;51.342;6.338;2022-10-16T02:37:47;15.40;99.90
26517;DHT22;14190;51.342;6.338;2022-10-16T02:40:17;15.40;99.90
26517;DHT22;14190;51.342;6.338;2022-10-16T02:42:49;15.40;99.90
26517;DHT22;14190;51.342;6.338;2022-10-16T02:45:16;15.40;99.90
26517;DHT22;14190;51.342;6.338;2022-10-16T02:47:45;15.30;99.90
26517;DHT22;14190;51.342;6.338;2022-10-16T02:50:14;15.40;99.90
26517;DHT22;14190;51.342;6.338;2022-10-16T02:52:43;15.40;99.90
26517;DHT22;14190;51.342;6.338;2022-10-16T02:55:11;15.40;99.90
26517;DHT22;14190;51.342;6.338;2022-10-16T02:57:40;15.40;99.90
26517;DHT22;14190;51.342;6.338;2022-10-16T03:00:09;15.40;99.90
26517;DHT22;14190;51.342;6.338;2022-10-16T03:02:38;15.30;99.90
26517;DHT22;14190;51.342;6.338;2022-10-16T03:05:07;15.40;99.90
26517;DHT22;14190;51.342;6.338;2022-10-16T03:07:36;15.40;99.90
26517;DHT22;14190;51.342;6.338;2022-10-16T03:10:05;15.40;99.90
26517;DHT22;14190;51.342;6.338;2022-10-16T03:12:34;15.40;99.90
26517;DHT22;14190;51.342;6.338;2022-10-16T03:15:03;15.40;99.90
26517;DHT22;14190;51.342;6.338;2022-10-16T03:17:32;15.40;99.90
26517;DHT22;14190;51.342;6.338;2022-10-16T03:20:01;15.40;99.90
26517;DHT22;14190;51.342;6.338;2022-10-16T03:22:30;15.40;99.90
26517;DHT22;14190;51.342;6.338;2022-10-16T03:24:59;15.40;99.90
26517;DHT22;14190;51.342;6.338;2022-10-16T03:27:27;15.40;99.90
26517;DHT22;14190;51.342;6.338;2022-10-16T03:29:56;15.40;99.90
26517;DHT22;14190;51.342;6.338;2022-10-16T03:32:25;15.40;99.90
26517;DHT22;14190;51.342;6.338;2022-10-16T03:34:56;15.40;99.90
26517;DHT22;14190;51.342;6.338;2022-10-16T03:37:24;15.30;99.90
26517;DHT22;14190;51.342;6.338;2022-10-16T03:39:53;15.30;99.90
26517;DHT22;14190;51.342;6.338;2022-10-16T03:42:22;15.30;99.90
26517;DHT22;14190;51.342;6.338;2022-10-16T03:44:52;15.30;99.90
26517;DHT22;14190;51.342;6.338;2022-10-16T03:47:20;15.30;99.90
26517;DHT22;14190;51.342;6.338;2022-10-16T03:49:51;15.30;99.90
26517;DHT22;14190;51.342;6.338;2022-10-16T03:52:19;15.30;99.90
26517;DHT22;14190;51.342;6.338;2022-10-16T03:54:48;15.30;99.90
26517;DHT22;14190;51.342;6.338;2022-10-16T03:57:17;15.30;99.90
26517;DHT22;14190;51.342;6.338;2022-10-16T03:59:46;15.30;99.90
26517;DHT22;14190;51.342;6.338;2022-10-16T04:02:14;15.40;99.90
26517;DHT22;14190;51.342;6.338;2022-10-16T04:04:43;15.30;99.90
26517;DHT22;14190;51.342;6.338;2022-10-16T04:07:12;15.40;99.90
26517;DHT22;14190;51.342;6.338;2022-10-16T04:09:40;15.40;99.90
26517;DHT22;14190;51.342;6.338;2022-10-16T04:12:09;15.40;99.90
26517;DHT22;14190;51.342;6.338;2022-10-16T04:14:38;15.40;99.90
26517;DHT22;14190;51.342;6.338;2022-10-16T04:17:07;15.40;99.90
26517;DHT22;14190;51.342;6.338;2022-10-16T04:19:35;15.40;99.90
26517;DHT22;14190;51.342;6.338;2022-10-16T04:22:04;15.40;99.90
26517;DHT22;14190;51.342;6.338;2022-10-16T04:24:33;15.40;99.90
26517;DHT22;14190;51.342;6.338;2022-10-16T04:27:01;15.30;99.90
26517;DHT22;14190;51.342;6.338;2022-10-16T04:29:30;15.30;99.90
26517;DHT22;14190;51.342;6.338;2022-10-16T04:31:59;15.30;99.90
26517;DHT22;14190;51.342;6.338;2022-10-16T04:34:27;15.30;99.90
26517;DHT22;14190;51.342;6.338;2022-10-16T04:36:56;15.20;99.90
26517;DHT22;14190;51.342;6.338;2022-10-16T04:39:25;15.20;99.90
26517;DHT22;14190;51.342;6.338;2022-10-16T04:41:53;15.20;99.90
26517;DHT22;14190;51.342;6.338;2022-10-16T04:44:22;15.20;99.90
26517;DHT22;14190;51.342;6.338;2022-10-16T04:46:51;15.20;99.90
26517;DHT22;14190;51.342;6.338;2022-10-16T04:49:20;15.20;99.90
26517;DHT22;14190;51.342;6.338;2022-10-16T04:51:48;15.20;99.90
26517;DHT22;14190;51.342;6.338;2022-10-16T04:54:17;15.20;99.90
26517;DHT22;14190;51.342;6.338;2022-10-16T04:56:46;15.30;99.90
26517;DHT22;14190;51.342;6.338;2022-10-16T04:59:15;15.20;99.90
26517;DHT22;14190;51.342;6.338;2022-10-16T05:01:44;15.30;99.90
26517;DHT22;14190;51.342;6.338;2022-10-16T05:04:13;15.30;99.90
26517;DHT22;14190;51.342;6.338;2022-10-16T05:06:42;15.20;99.90
26517;DHT22;14190;51.342;6.338;2022-10-16T05:09:11;15.20;99.90
26517;DHT22;14190;51.342;6.338;2022-10-16T05:11:40;15.30;99.90
26517;DHT22;14190;51.342;6.338;2022-10-16T05:14:08;15.20;99.90
26517;DHT22;14190;51.342;6.338;2022-10-16T05:16:37;15.20;99.90
26517;DHT22;14190;51.342;6.338;2022-10-16T05:19:06;15.20;99.90
26517;DHT22;14190;51.342;6.338;2022-10-16T05:21:35;15.20;99.90
26517;DHT22;14190;51.342;6.338;2022-10-16T05:24:03;15.10;99.90
26517;DHT22;14190;51.342;6.338;2022-10-16T05:26:32;15.10;99.90
26517;DHT22;14190;51.342;6.338;2022-10-16T05:29:01;15.10;99.90
26517;DHT22;14190;51.342;6.338;2022-10-16T05:31:30;15.10;99.90
26517;DHT22;14190;51.342;6.338;2022-10-16T05:33:59;15.10;99.90
26517;DHT22;14190;51.342;6.338;2022-10-16T05:36:28;15.10;99.90
26517;DHT22;14190;51.342;6.338;2022-10-16T05:38:56;15.10;99.90
26517;DHT22;14190;51.342;6.338;2022-10-16T05:41:25;15.20;99.90
26517;DHT22;14190;51.342;6.338;2022-10-16T05:43:56;15.20;99.90
26517;DHT22;14190;51.342;6.338;2022-10-16T05:46:24;15.20;99.90
26517;DHT22;14190;51.342;6.338;2022-10-16T05:48:53;15.10;99.90
26517;DHT22;14190;51.342;6.338;2022-10-16T05:51:22;15.10;99.90
26517;DHT22;14190;51.342;6.338;2022-10-16T05:53:51;15.10;99.90
26517;DHT22;14190;51.342;6.338;2022-10-16T05:56:20;15.10;99.90
26517;DHT22;14190;51.342;6.338;2022-10-16T05:58:49;15.10;99.90
26517;DHT22;14190;51.342;6.338;2022-10-16T06:01:18;15.10;99.90
26517;DHT22;14190;51.342;6.338;2022-10-16T06:03:48;15.10;99.90
26517;DHT22;14190;51.342;6.338;2022-10-16T06:06:19;15.10;99.90
26517;DHT22;14190;51.342;6.338;2022-10-16T06:08:57;15.10;99.90
26517;DHT22;14190;51.342;6.338;2022-10-16T06:11:30;15.10;99.90
26517;DHT22;14190;51.342;6.338;2022-10-16T06:14:00;15.00;99.90
26517;DHT22;14190;51.342;6.338;2022-10-16T06:16:31;15.10;99.90
26517;DHT22;14190;51.342;6.338;2022-10-16T06:19:00;15.10;99.90
26517;DHT22;14190;51.342;6.338;2022-10-16T06:21:28;15.10;99.90
26517;DHT22;14190;51.342;6.338;2022-10-16T06:23:57;15.10;99.90
26517;DHT22;14190;51.342;6.338;2022-10-16T06:26:27;15.20;99.90
26517;DHT22;14190;51.342;6.338;2022-10-16T06:28:57;15.10;99.90
26517;DHT22;14190;51.342;6.338;2022-10-16T06:31:26;15.10;99.90
26517;DHT22;14190;51.342;6.338;2022-10-16T06:33:57;15.10;99.90
26517;DHT22;14190;51.342;6.338;2022-10-16T06:36:26;15.10;99.90
26517;DHT22;14190;51.342;6.338;2022-10-16T06:38:54;15.10;99.90
26517;DHT22;14190;51.342;6.338;2022-10-16T06:41:23;15.00;99.90
26517;DHT22;14190;51.342;6.338;2022-10-16T06:43:52;15.00;99.90
26517;DHT22;14190;51.342;6.338;2022-10-16T06:46:22;15.00;99.90
26517;DHT22;14190;51.342;6.338;2022-10-16T06:48:51;15.10;99.90
26517;DHT22;14190;51.342;6.338;2022-10-16T06:51:21;15.00;99.90
26517;DHT22;14190;51.342;6.338;2022-10-16T06:53:51;15.00;99.90
26517;DHT22;14190;51.342;6.338;2022-10-16T06:56:25;15.00;99.90
26517;DHT22;14190;51.342;6.338;2022-10-16T06:58:50;15.10;99.90
26517;DHT22;14190;51.342;6.338;2022-10-16T07:01:21;15.10;99.90
26517;DHT22;14190;51.342;6.338;2022-10-16T07:03:50;15.00;99.90
26517;DHT22;14190;51.342;6.338;2022-10-16T07:06:19;15.00;99.90
26517;DHT22;14190;51.342;6.338;2022-10-16T07:08:48;15.00;99.90
26517;DHT22;14190;51.342;6.338;2022-10-16T07:11:18;15.00;99.90
26517;DHT22;14190;51.342;6.338;2022-10-16T07:13:47;15.00;99.90
26517;DHT22;14190;51.342;6.338;2022-10-16T07:16:25;15.10;99.90
26517;DHT22;14190;51.342;6.338;2022-10-16T07:18:54;15.10;99.90
26517;DHT22;14190;51.342;6.338;2022-10-16T07:21:27;15.30;99.90
26517;DHT22;14190;51.342;6.338;2022-10-16T07:23:57;15.40;99.90
26517;DHT22;14190;51.342;6.338;2022-10-16T07:26:27;15.40;99.90
26517;DHT22;14190;51.342;6.338;2022-10-16T07:28:56;15.60;99.90
26517;DHT22;14190;51.342;6.338;2022-10-16T07:31:25;15.80;99.90
26517;DHT22;14190;51.342;6.338;2022-10-16T07:33:54;15.90;99.90
26517;DHT22;14190;51.342;6.338;2022-10-16T07:36:23;16.10;99.90
26517;DHT22;14190;51.342;6.338;2022-10-16T08:14:03;18.30;99.90
26517;DHT22;14190;51.342;6.338;2022-10-16T08:16:33;18.50;99.90
26517;DHT22;14190;51.342;6.338;2022-10-16T08:19:02;18.60;99.90
26517;DHT22;14190;51.342;6.338;2022-10-16T08:21:32;18.70;99.90
26517;DHT22;14190;51.342;6.338;2022-10-16T08:24:01;18.80;99.90
26517;DHT22;14190;51.342;6.338;2022-10-16T08:26:30;18.90;99.90
26517;DHT22;14190;51.342;6.338;2022-10-16T08:28:58;19.00;99.90
26517;DHT22;14190;51.342;6.338;2022-10-16T08:31:27;19.10;99.90
26517;DHT22;14190;51.342;6.338;2022-10-16T08:33:56;19.30;99.90
26517;DHT22;14190;51.342;6.338;2022-10-16T08:36:26;19.40;99.90
26517;DHT22;14190;51.342;6.338;2022-10-16T08:38:55;19.40;99.90
26517;DHT22;14190;51.342;6.338;2022-10-16T08:46:32;19.60;99.90
26517;DHT22;14190;51.342;6.338;2022-10-16T08:48:59;19.70;99.90
26517;DHT22;14190;51.342;6.338;2022-10-16T08:51:31;19.70;99.90
26517;DHT22;14190;51.342;6.338;2022-10-16T08:54:04;19.70;99.90
26517;DHT22;14190;51.342;6.338;2022-10-16T08:56:33;19.60;99.90
26517;DHT22;14190;51.342;6.338;2022-10-16T08:59:01;19.80;99.90
26517;DHT22;14190;51.342;6.338;2022-10-16T09:01:40;19.90;99.90
26517;DHT22;14190;51.342;6.338;2022-10-16T09:06:56;20.20;99.90
26517;DHT22;14190;51.342;6.338;2022-10-16T09:12:19;20.20;99.90
26517;DHT22;14190;51.342;6.338;2022-10-16T09:14:53;20.20;99.90
26517;DHT22;14190;51.342;6.338;2022-10-16T09:19:58;20.30;99.90
26517;DHT22;14190;51.342;6.338;2022-10-16T09:22:25;20.40;99.90
26517;DHT22;14190;51.342;6.338;2022-10-16T09:25:00;20.50;99.90
26517;DHT22;14190;51.342;6.338;2022-10-16T09:27:25;20.70;99.90
26517;DHT22;14190;51.342;6.338;2022-10-16T09:29:54;20.70;99.90
26517;DHT22;14190;51.342;6.338;2022-10-16T09:32:23;20.70;99.90
26517;DHT22;14190;51.342;6.338;2022-10-16T09:34:53;20.70;99.90
26517;DHT22;14190;51.342;6.338;2022-10-16T09:37:24;20.70;99.90
26517;DHT22;14190;51.342;6.338;2022-10-16T09:39:53;20.60;99.90
26517;DHT22;14190;51.342;6.338;2022-10-16T09:42:30;20.50;99.90
26517;DHT22;14190;51.342;6.338;2022-10-16T09:44:58;20.50;99.90
26517;DHT22;14190;51.342;6.338;2022-10-16T09:47:28;20.50;99.90
26517;DHT22;14190;51.342;6.338;2022-10-16T09:49:57;20.60;99.90
26517;DHT22;14190;51.342;6.338;2022-10-16T09:52:28;20.70;99.90
26517;DHT22;14190;51.342;6.338;2022-10-16T09:55:01;20.80;99.90
26517;DHT22;14190;51.342;6.338;2022-10-16T09:57:31;20.70;99.90
26517;DHT22;14190;51.342;6.338;2022-10-16T10:00:00;20.70;99.90
26517;DHT22;14190;51.342;6.338;2022-10-16T10:02:34;20.70;99.90
26517;DHT22;14190;51.342;6.338;2022-10-16T10:05:02;20.60;99.90
26517;DHT22;14190;51.342;6.338;2022-10-16T10:07:40;20.50;99.90
26517;DHT22;14190;51.342;6.338;2022-10-16T10:10:05;20.50;99.90
26517;DHT22;14190;51.342;6.338;2022-10-16T10:12:34;20.50;99.90
26517;DHT22;14190;51.342;6.338;2022-10-16T10:15:06;20.40;99.90
26517;DHT22;14190;51.342;6.338;2022-10-16T10:17:44;20.40;99.90
26517;DHT22;14190;51.342;6.338;2022-10-16T10:20:21;20.30;99.90
26517;DHT22;14190;51.342;6.338;2022-10-16T10:22:43;20.10;99.90
26517;DHT22;14190;51.342;6.338;2022-10-16T10:25:19;20.00;99.90
26517;DHT22;14190;51.342;6.338;2022-10-16T10:30:23;20.10;99.90
26517;DHT22;14190;51.342;6.338;2022-10-16T10:46:04;19.80;99.90
26517;DHT22;14190;51.342;6.338;2022-10-16T10:51:29;19.70;99.90
26517;DHT22;14190;51.342;6.338;2022-10-16T10:53:50;19.80;99.90
26517;DHT22;14190;51.342;6.338;2022-10-16T10:59:00;20.00;99.90
26517;DHT22;14190;51.342;6.338;2022-10-16T11:01:32;20.00;99.90
26517;DHT22;14190;51.342;6.338;2022-10-16T11:06:51;20.00;99.90
26517;DHT22;14190;51.342;6.338;2022-10-16T11:09:23;20.10;99.90
26517;DHT22;14190;51.342;6.338;2022-10-16T11:11:56;20.10;99.90
26517;DHT22;14190;51.342;6.338;2022-10-16T11:14:31;20.20;99.90
26517;DHT22;14190;51.342;6.338;2022-10-16T11:19:54;20.40;99.90
26517;DHT22;14190;51.342;6.338;2022-10-16T11:28:29;20.30;99.90
26517;DHT22;14190;51.342;6.338;2022-10-16T11:30:20;20.30;99.90
26517;DHT22;14190;51.342;6.338;2022-10-16T11:32:54;20.20;99.90
26517;DHT22;14190;51.342;6.338;2022-10-16T11:35:24;20.20;99.90
26517;DHT22;14190;51.342;6.338;2022-10-16T11:37:53;20.20;99.90
26517;DHT22;14190;51.342;6.338;2022-10-16T11:40:33;20.20;99.90
26517;DHT22;14190;51.342;6.338;2022-10-16T11:43:13;20.10;99.90
26517;DHT22;14190;51.342;6.338;2022-10-16T11:45:43;20.20;99.90
26517;DHT22;14190;51.342;6.338;2022-10-16T11:51:05;20.30;99.90
26517;DHT22;14190;51.342;6.338;2022-10-16T11:53:44;20.30;99.90
26517;DHT22;14190;51.342;6.338;2022-10-16T11:56:17;20.40;99.90
26517;DHT22;14190;51.342;6.338;2022-10-16T11:58:50;20.50;99.90
26517;DHT22;14190;51.342;6.338;2022-10-16T12:01:26;20.50;99.90
26517;DHT22;14190;51.342;6.338;2022-10-16T12:04:06;20.50;99.90
26517;DHT22;14190;51.342;6.338;2022-10-16T12:06:36;20.50;99.90
26517;DHT22;14190;51.342;6.338;2022-10-16T12:09:05;20.50;99.90
26517;DHT22;14190;51.342;6.338;2022-10-16T12:11:35;20.50;99.90
26517;DHT22;14190;51.342;6.338;2022-10-16T12:14:05;20.50;99.90
26517;DHT22;14190;51.342;6.338;2022-10-16T12:16:36;20.50;99.90
26517;DHT22;14190;51.342;6.338;2022-10-16T12:19:10;20.50;99.90
26517;DHT22;14190;51.342;6.338;2022-10-16T12:21:38;20.50;99.90
26517;DHT22;14190;51.342;6.338;2022-10-16T12:24:18;20.50;99.90
26517;DHT22;14190;51.342;6.338;2022-10-16T12:26:38;20.60;99.90
26517;DHT22;14190;51.342;6.338;2022-10-16T12:29:22;20.60;99.90
26517;DHT22;14190;51.342;6.338;2022-10-16T12:31:45;20.60;99.90
26517;DHT22;14190;51.342;6.338;2022-10-16T12:34:21;20.50;99.90
26517;DHT22;14190;51.342;6.338;2022-10-16T12:36:47;20.50;99.90
26517;DHT22;14190;51.342;6.338;2022-10-16T12:39:23;20.50;99.90
26517;DHT22;14190;51.342;6.338;2022-10-16T12:42:02;20.60;99.90
26517;DHT22;14190;51.342;6.338;2022-10-16T12:44:33;20.70;99.90
26517;DHT22;14190;51.342;6.338;2022-10-16T12:47:02;20.80;99.90
26517;DHT22;14190;51.342;6.338;2022-10-16T12:49:34;20.90;99.90
26517;DHT22;14190;51.342;6.338;2022-10-16T12:52:01;20.90;99.90
26517;DHT22;14190;51.342;6.338;2022-10-16T12:54:35;20.80;99.90
26517;DHT22;14190;51.342;6.338;2022-10-16T12:59:35;20.80;99.90
26517;DHT22;14190;51.342;6.338;2022-10-16T13:02:16;20.80;99.90
26517;DHT22;14190;51.342;6.338;2022-10-16T13:10:30;20.90;99.90
26517;DHT22;14190;51.342;6.338;2022-10-16T13:15:41;20.80;99.90
26517;DHT22;14190;51.342;6.338;2022-10-16T13:20:56;20.80;99.90
26517;DHT22;14190;51.342;6.338;2022-10-16T13:26:13;20.80;99.90
26517;DHT22;14190;51.342;6.338;2022-10-16T13:28:39;20.90;99.90
26517;DHT22;14190;51.342;6.338;2022-10-16T13:31:26;20.80;99.90
26517;DHT22;14190;51.342;6.338;2022-10-16T13:33:41;20.90;99.90
26517;DHT22;14190;51.342;6.338;2022-10-16T13:39:00;20.90;99.90
26517;DHT22;14190;51.342;6.338;2022-10-16T13:41:29;20.90;99.90
26517;DHT22;14190;51.342;6.338;2022-10-16T13:43:58;21.00;99.90
26517;DHT22;14190;51.342;6.338;2022-10-16T13:46:27;21.00;99.90
26517;DHT22;14190;51.342;6.338;2022-10-16T13:49:01;21.10;99.90
26517;DHT22;14190;51.342;6.338;2022-10-16T13:51:30;21.10;99.90
26517;DHT22;14190;51.342;6.338;2022-10-16T13:54:00;21.10;99.90
26517;DHT22;14190;51.342;6.338;2022-10-16T13:56:29;21.10;99.90
26517;DHT22;14190;51.342;6.338;2022-10-16T13:58:59;21.00;99.90
26517;DHT22;14190;51.342;6.338;2022-10-16T14:01:34;21.10;99.90
26517;DHT22;14190;51.342;6.338;2022-10-16T14:04:05;21.10;99.90
26517;DHT22;14190;51.342;6.338;2022-10-16T14:06:35;21.00;99.90
26517;DHT22;14190;51.342;6.338;2022-10-16T14:09:15;21.00;99.90
26517;DHT22;14190;51.342;6.338;2022-10-16T14:11:48;20.90;99.90
26517;DHT22;14190;51.342;6.338;2022-10-16T14:14:16;20.90;99.90
26517;DHT22;14190;51.342;6.338;2022-10-16T14:16:45;20.90;99.90
26517;DHT22;14190;51.342;6.338;2022-10-16T14:19:21;20.90;99.90
26517;DHT22;14190;51.342;6.338;2022-10-16T14:21:51;20.80;99.90
26517;DHT22;14190;51.342;6.338;2022-10-16T14:24:25;20.90;99.90
26517;DHT22;14190;51.342;6.338;2022-10-16T14:26:50;20.90;99.90
26517;DHT22;14190;51.342;6.338;2022-10-16T14:29:21;20.90;99.90
26517;DHT22;14190;51.342;6.338;2022-10-16T14:32:00;20.90;99.90
26517;DHT22;14190;51.342;6.338;2022-10-16T14:34:30;20.90;99.90
26517;DHT22;14190;51.342;6.338;2022-10-16T14:37:09;20.80;99.90
26517;DHT22;14190;51.342;6.338;2022-10-16T14:39:37;20.80;99.90
26517;DHT22;14190;51.342;6.338;2022-10-16T14:42:11;20.70;99.90
26517;DHT22;14190;51.342;6.338;2022-10-16T14:44:37;20.70;99.90
26517;DHT22;14190;51.342;6.338;2022-10-16T14:47:08;20.70;99.90
26517;DHT22;14190;51.342;6.338;2022-10-16T14:49:37;20.60;99.90
26517;DHT22;14190;51.342;6.338;2022-10-16T14:52:10;20.60;99.90
26517;DHT22;14190;51.342;6.338;2022-10-16T14:54:39;20.50;99.90
26517;DHT22;14190;51.342;6.338;2022-10-16T14:57:15;20.40;99.90
26517;DHT22;14190;51.342;6.338;2022-10-16T14:59:44;20.40;99.90
26517;DHT22;14190;51.342;6.338;2022-10-16T15:02:18;20.30;99.90
26517;DHT22;14190;51.342;6.338;2022-10-16T15:04:46;20.20;99.90
26517;DHT22;14190;51.342;6.338;2022-10-16T15:07:15;20.10;99.90
26517;DHT22;14190;51.342;6.338;2022-10-16T15:09:44;20.00;99.90
26517;DHT22;14190;51.342;6.338;2022-10-16T15:12:13;20.00;99.90
26517;DHT22;14190;51.342;6.338;2022-10-16T15:14:41;20.00;99.90
26517;DHT22;14190;51.342;6.338;2022-10-16T15:17:10;20.00;99.90
26517;DHT22;14190;51.342;6.338;2022-10-16T15:19:40;20.00;99.90
26517;DHT22;14190;51.342;6.338;2022-10-16T15:22:10;20.00;99.90
26517;DHT22;14190;51.342;6.338;2022-10-16T15:24:39;19.90;99.90
26517;DHT22;14190;51.342;6.338;2022-10-16T15:27:08;19.80;99.90
26517;DHT22;14190;51.342;6.338;2022-10-16T15:29:36;19.80;99.90
26517;DHT22;14190;51.342;6.338;2022-10-16T15:32:05;19.80;99.90
26517;DHT22;14190;51.342;6.338;2022-10-16T15:34:34;19.60;99.90
26517;DHT22;14190;51.342;6.338;2022-10-16T15:37:03;19.60;99.90
26517;DHT22;14190;51.342;6.338;2022-10-16T15:39:32;19.60;99.90
26517;DHT22;14190;51.342;6.338;2022-10-16T15:42:00;19.60;99.90
26517;DHT22;14190;51.342;6.338;2022-10-16T15:44:29;19.70;99.90
26517;DHT22;14190;51.342;6.338;2022-10-16T15:46:58;19.70;99.90
26517;DHT22;14190;51.342;6.338;2022-10-16T15:49:28;19.60;99.90
26517;DHT22;14190;51.342;6.338;2022-10-16T15:51:57;19.50;99.90
26517;DHT22;14190;51.342;6.338;2022-10-16T15:54:26;19.50;99.90
26517;DHT22;14190;51.342;6.338;2022-10-16T15:56:54;19.40;99.90
26517;DHT22;14190;51.342;6.338;2022-10-16T15:59:23;19.40;99.90
26517;DHT22;14190;51.342;6.338;2022-10-16T16:01:52;19.40;99.90
26517;DHT22;14190;51.342;6.338;2022-10-16T16:04:20;19.40;99.90
26517;DHT22;14190;51.342;6.338;2022-10-16T16:06:49;19.30;99.90
26517;DHT22;14190;51.342;6.338;2022-10-16T16:09:18;19.20;99.90
26517;DHT22;14190;51.342;6.338;2022-10-16T16:11:46;19.20;99.90
26517;DHT22;14190;51.342;6.338;2022-10-16T16:14:15;19.20;99.90
26517;DHT22;14190;51.342;6.338;2022-10-16T16:16:44;19.10;99.90
26517;DHT22;14190;51.342;6.338;2022-10-16T16:19:13;19.10;99.90
26517;DHT22;14190;51.342;6.338;2022-10-16T16:21:44;19.10;99.90
26517;DHT22;14190;51.342;6.338;2022-10-16T16:24:13;19.10;99.90
26517;DHT22;14190;51.342;6.338;2022-10-16T16:26:41;19.00;99.90
26517;DHT22;14190;51.342;6.338;2022-10-16T16:29:11;19.00;99.90
26517;DHT22;14190;51.342;6.338;2022-10-16T16:31:41;19.00;99.90
26517;DHT22;14190;51.342;6.338;2022-10-16T16:34:10;18.90;99.90
26517;DHT22;14190;51.342;6.338;2022-10-16T16:36:39;18.90;99.90
26517;DHT22;14190;51.342;6.338;2022-10-16T16:39:08;19.00;99.90
26517;DHT22;14190;51.342;6.338;2022-10-16T16:41:38;18.90;99.90
26517;DHT22;14190;51.342;6.338;2022-10-16T16:44:12;18.90;99.90
26517;DHT22;14190;51.342;6.338;2022-10-16T16:46:37;18.80;99.90
26517;DHT22;14190;51.342;6.338;2022-10-16T16:49:07;18.80;99.90
26517;DHT22;14190;51.342;6.338;2022-10-16T16:51:36;18.80;99.90
26517;DHT22;14190;51.342;6.338;2022-10-16T16:54:05;18.80;99.90
26517;DHT22;14190;51.342;6.338;2022-10-16T16:56:35;18.70;99.90
26517;DHT22;14190;51.342;6.338;2022-10-16T16:59:04;18.60;99.90
26517;DHT22;14190;51.342;6.338;2022-10-16T17:01:33;18.60;99.90
26517;DHT22;14190;51.342;6.338;2022-10-16T17:04:02;18.60;99.90
26517;DHT22;14190;51.342;6.338;2022-10-16T17:06:30;18.60;99.90
26517;DHT22;14190;51.342;6.338;2022-10-16T17:09:00;18.50;99.90
26517;DHT22;14190;51.342;6.338;2022-10-16T17:11:30;18.50;99.90
26517;DHT22;14190;51.342;6.338;2022-10-16T17:13:59;18.60;99.90
26517;DHT22;14190;51.342;6.338;2022-10-16T17:16:30;18.60;99.90
26517;DHT22;14190;51.342;6.338;2022-10-16T17:19:00;18.60;99.90
26517;DHT22;14190;51.342;6.338;2022-10-16T17:21:29;18.60;99.90
26517;DHT22;14190;51.342;6.338;2022-10-16T17:23:59;18.60;99.90
26517;DHT22;14190;51.342;6.338;2022-10-16T17:26:29;18.60;99.90
26517;DHT22;14190;51.342;6.338;2022-10-16T17:28:58;18.60;99.90
26517;DHT22;14190;51.342;6.338;2022-10-16T17:31:29;18.60;99.90
26517;DHT22;14190;51.342;6.338;2022-10-16T17:33:58;18.60;99.90
26517;DHT22;14190;51.342;6.338;2022-10-16T17:36:28;18.60;99.90